sensor_id;sensor_type;location;lat;lon;timestamp;temperature;humidity
81321;DHT22;70785;52.570;5.638;2023-11-19T00:00:57;12.90;80.50
81321;DHT22;70785;52.570;5.638;2023-11-19T00:03:23;12.90;80.40
81321;DHT22;70785;52.570;5.638;2023-11-19T00:05:49;12.90;80.30
81321;DHT22;70785;52.570;5.638;2023-11-19T00:08:16;12.90;80.30
81321;DHT22;70785;52.570;5.638;2023-11-19T00:10:42;12.90;80.20
81321;DHT22;70785;52.570;5.638;2023-11-19T00:13:08;12.90;80.20
81321;DHT22;70785;52.570;5.638;2023-11-19T00:15:36;12.90;80.10
81321;DHT22;70785;52.570;5.638;2023-11-19T00:18:02;12.90;80.00
81321;DHT22;70785;52.570;5.638;2023-11-19T00:20:31;12.90;79.90
81321;DHT22;70785;52.570;5.638;2023-11-19T00:22:57;12.90;79.70
81321;DHT22;70785;52.570;5.638;2023-11-19T00:25:23;12.90;79.70
81321;DHT22;70785;52.570;5.638;2023-11-19T00:27:50;12.80;79.70
81321;DHT22;70785;52.570;5.638;2023-11-19T00:30:17;12.80;79.70
81321;DHT22;70785;52.570;5.638;2023-11-19T00:32:43;12.70;79.80
81321;DHT22;70785;52.570;5.638;2023-11-19T00:35:09;12.80;79.80
81321;DHT22;70785;52.570;5.638;2023-11-19T00:37:42;12.80;79.80
81321;DHT22;70785;52.570;5.638;2023-11-19T00:40:16;12.80;79.70
81321;DHT22;70785;52.570;5.638;2023-11-19T00:42:44;12.80;79.60
81321;DHT22;70785;52.570;5.638;2023-11-19T00:45:10;12.90;79.40
81321;DHT22;70785;52.570;5.638;2023-11-19T00:47:38;12.90;79.40
81321;DHT22;70785;52.570;5.638;2023-11-19T00:50:05;12.90;79.20
81321;DHT22;70785;52.570;5.638;2023-11-19T00:52:31;13.00;79.20
81321;DHT22;70785;52.570;5.638;2023-11-19T00:54:57;13.00;79.10
81321;DHT22;70785;52.570;5.638;2023-11-19T00:57:23;13.00;79.10
81321;DHT22;70785;52.570;5.638;2023-11-19T00:59:50;13.00;79.00
81321;DHT22;70785;52.570;5.638;2023-11-19T01:02:16;13.00;78.90
81321;DHT22;70785;52.570;5.638;2023-11-19T01:04:42;13.00;78.80
81321;DHT22;70785;52.570;5.638;2023-11-19T01:07:08;13.00;78.70
81321;DHT22;70785;52.570;5.638;2023-11-19T01:09:38;12.90;78.70
81321;DHT22;70785;52.570;5.638;2023-11-19T01:12:05;12.80;78.70
81321;DHT22;70785;52.570;5.638;2023-11-19T01:14:31;12.80;78.90
81321;DHT22;70785;52.570;5.638;2023-11-19T01:16:57;12.70;78.80
81321;DHT22;70785;52.570;5.638;2023-11-19T01:19:24;12.70;78.80
81321;DHT22;70785;52.570;5.638;2023-11-19T01:21:53;12.70;78.70
81321;DHT22;70785;52.570;5.638;2023-11-19T01:24:19;12.60;78.70
81321;DHT22;70785;52.570;5.638;2023-11-19T01:26:47;12.50;78.80
81321;DHT22;70785;52.570;5.638;2023-11-19T01:29:13;12.50;78.70
81321;DHT22;70785;52.570;5.638;2023-11-19T01:31:45;12.50;78.70
81321;DHT22;70785;52.570;5.638;2023-11-19T01:34:12;12.50;78.70
81321;DHT22;70785;52.570;5.638;2023-11-19T01:36:38;12.50;78.70
81321;DHT22;70785;52.570;5.638;2023-11-19T01:39:05;12.50;78.70
81321;DHT22;70785;52.570;5.638;2023-11-19T01:41:35;12.40;78.70
81321;DHT22;70785;52.570;5.638;2023-11-19T01:44:02;12.30;78.90
81321;DHT22;70785;52.570;5.638;2023-11-19T01:46:29;12.30;79.00
81321;DHT22;70785;52.570;5.638;2023-11-19T01:48:56;12.30;79.00
81321;DHT22;70785;52.570;5.638;2023-11-19T01:51:23;12.30;79.00
81321;DHT22;70785;52.570;5.638;2023-11-19T01:53:49;12.30;79.00
81321;DHT22;70785;52.570;5.638;2023-11-19T01:56:16;12.40;78.80
81321;DHT22;70785;52.570;5.638;2023-11-19T01:58:43;12.40;78.90
81321;DHT22;70785;52.570;5.638;2023-11-19T02:01:11;12.50;78.80
81321;DHT22;70785;52.570;5.638;2023-11-19T02:03:38;12.40;78.80
81321;DHT22;70785;52.570;5.638;2023-11-19T02:06:04;12.50;78.70
81321;DHT22;70785;52.570;5.638;2023-11-19T02:08:31;12.50;78.70
81321;DHT22;70785;52.570;5.638;2023-11-19T02:10:57;12.50;78.70
81321;DHT22;70785;52.570;5.638;2023-11-19T02:13:27;12.40;78.70
81321;DHT22;70785;52.570;5.638;2023-11-19T02:15:54;12.30;78.70
81321;DHT22;70785;52.570;5.638;2023-11-19T02:18:25;12.30;78.90
81321;DHT22;70785;52.570;5.638;2023-11-19T02:20:55;12.30;78.90
81321;DHT22;70785;52.570;5.638;2023-11-19T02:23:21;12.30;78.80
81321;DHT22;70785;52.570;5.638;2023-11-19T02:28:27;12.40;78.90
81321;DHT22;70785;52.570;5.638;2023-11-19T02:30:53;12.50;78.70
81321;DHT22;70785;52.570;5.638;2023-11-19T02:33:19;12.50;78.70
81321;DHT22;70785;52.570;5.638;2023-11-19T02:35:45;12.50;78.60
81321;DHT22;70785;52.570;5.638;2023-11-19T02:38:12;12.50;78.50
81321;DHT22;70785;52.570;5.638;2023-11-19T02:40:40;12.50;78.50
81321;DHT22;70785;52.570;5.638;2023-11-19T02:43:06;12.50;78.40
81321;DHT22;70785;52.570;5.638;2023-11-19T02:45:32;12.50;78.40
81321;DHT22;70785;52.570;5.638;2023-11-19T02:47:58;12.40;78.40
81321;DHT22;70785;52.570;5.638;2023-11-19T02:50:28;12.30;78.30
81321;DHT22;70785;52.570;5.638;2023-11-19T02:52:55;12.30;78.20
81321;DHT22;70785;52.570;5.638;2023-11-19T02:55:22;12.30;78.10
81321;DHT22;70785;52.570;5.638;2023-11-19T02:57:50;12.20;78.10
81321;DHT22;70785;52.570;5.638;2023-11-19T03:00:21;12.20;78.20
81321;DHT22;70785;52.570;5.638;2023-11-19T03:02:58;12.20;78.10
81321;DHT22;70785;52.570;5.638;2023-11-19T03:05:26;12.30;78.00
81321;DHT22;70785;52.570;5.638;2023-11-19T03:07:52;12.30;77.90
81321;DHT22;70785;52.570;5.638;2023-11-19T03:10:18;12.30;77.80
81321;DHT22;70785;52.570;5.638;2023-11-19T03:12:45;12.20;77.80
81321;DHT22;70785;52.570;5.638;2023-11-19T03:15:13;12.20;77.70
81321;DHT22;70785;52.570;5.638;2023-11-19T03:17:41;12.20;77.70
81321;DHT22;70785;52.570;5.638;2023-11-19T03:20:10;12.10;77.60
81321;DHT22;70785;52.570;5.638;2023-11-19T03:22:41;12.00;77.70
81321;DHT22;70785;52.570;5.638;2023-11-19T03:25:10;12.00;77.60
81321;DHT22;70785;52.570;5.638;2023-11-19T03:27:37;11.90;77.60
81321;DHT22;70785;52.570;5.638;2023-11-19T03:30:08;11.90;77.60
81321;DHT22;70785;52.570;5.638;2023-11-19T03:32:37;11.90;77.60
81321;DHT22;70785;52.570;5.638;2023-11-19T03:35:05;11.90;77.60
81321;DHT22;70785;52.570;5.638;2023-11-19T03:37:35;11.90;77.60
81321;DHT22;70785;52.570;5.638;2023-11-19T03:40:02;11.80;77.60
81321;DHT22;70785;52.570;5.638;2023-11-19T03:42:29;11.70;77.70
81321;DHT22;70785;52.570;5.638;2023-11-19T03:44:58;11.70;77.70
81321;DHT22;70785;52.570;5.638;2023-11-19T03:47:24;11.70;77.60
81321;DHT22;70785;52.570;5.638;2023-11-19T03:49:51;11.70;77.60
81321;DHT22;70785;52.570;5.638;2023-11-19T03:52:18;11.70;77.50
81321;DHT22;70785;52.570;5.638;2023-11-19T03:54:44;11.70;77.50
81321;DHT22;70785;52.570;5.638;2023-11-19T03:57:14;11.70;77.40
81321;DHT22;70785;52.570;5.638;2023-11-19T03:59:41;11.70;77.30
81321;DHT22;70785;52.570;5.638;2023-11-19T04:02:07;11.70;77.20
81321;DHT22;70785;52.570;5.638;2023-11-19T04:04:33;11.80;77.10
81321;DHT22;70785;52.570;5.638;2023-11-19T04:07:01;11.80;77.10
81321;DHT22;70785;52.570;5.638;2023-11-19T04:09:29;11.80;77.00
81321;DHT22;70785;52.570;5.638;2023-11-19T04:11:56;11.80;76.90
81321;DHT22;70785;52.570;5.638;2023-11-19T04:14:22;11.90;76.80
81321;DHT22;70785;52.570;5.638;2023-11-19T04:16:49;11.90;76.70
81321;DHT22;70785;52.570;5.638;2023-11-19T04:19:15;11.90;76.60
81321;DHT22;70785;52.570;5.638;2023-11-19T04:21:41;11.90;76.50
81321;DHT22;70785;52.570;5.638;2023-11-19T04:24:11;12.00;76.30
81321;DHT22;70785;52.570;5.638;2023-11-19T04:26:45;12.00;76.20
81321;DHT22;70785;52.570;5.638;2023-11-19T04:29:12;12.00;76.20
81321;DHT22;70785;52.570;5.638;2023-11-19T04:31:39;12.00;76.00
81321;DHT22;70785;52.570;5.638;2023-11-19T04:34:05;12.00;75.90
81321;DHT22;70785;52.570;5.638;2023-11-19T04:36:34;12.10;75.60
81321;DHT22;70785;52.570;5.638;2023-11-19T04:39:01;12.10;75.50
81321;DHT22;70785;52.570;5.638;2023-11-19T04:41:27;12.10;75.30
81321;DHT22;70785;52.570;5.638;2023-11-19T04:43:54;12.10;75.30
81321;DHT22;70785;52.570;5.638;2023-11-19T04:46:21;12.10;75.20
81321;DHT22;70785;52.570;5.638;2023-11-19T04:48:47;12.00;75.30
81321;DHT22;70785;52.570;5.638;2023-11-19T04:51:13;12.00;75.20
81321;DHT22;70785;52.570;5.638;2023-11-19T04:53:39;11.90;75.20
81321;DHT22;70785;52.570;5.638;2023-11-19T04:56:09;11.90;75.10
81321;DHT22;70785;52.570;5.638;2023-11-19T04:58:36;11.90;75.10
81321;DHT22;70785;52.570;5.638;2023-11-19T05:01:05;11.90;75.00
81321;DHT22;70785;52.570;5.638;2023-11-19T05:03:32;11.90;75.00
81321;DHT22;70785;52.570;5.638;2023-11-19T05:05:58;11.90;75.00
81321;DHT22;70785;52.570;5.638;2023-11-19T05:08:25;11.80;75.10
81321;DHT22;70785;52.570;5.638;2023-11-19T05:10:51;11.80;75.20
81321;DHT22;70785;52.570;5.638;2023-11-19T05:13:17;11.70;75.20
81321;DHT22;70785;52.570;5.638;2023-11-19T05:15:43;11.70;75.30
81321;DHT22;70785;52.570;5.638;2023-11-19T05:18:09;11.70;75.30
81321;DHT22;70785;52.570;5.638;2023-11-19T05:20:35;11.70;75.30
81321;DHT22;70785;52.570;5.638;2023-11-19T05:23:01;11.60;75.30
81321;DHT22;70785;52.570;5.638;2023-11-19T05:25:28;11.60;75.30
81321;DHT22;70785;52.570;5.638;2023-11-19T05:27:54;11.50;75.30
81321;DHT22;70785;52.570;5.638;2023-11-19T05:30:20;11.50;75.20
81321;DHT22;70785;52.570;5.638;2023-11-19T05:32:46;11.60;75.20
81321;DHT22;70785;52.570;5.638;2023-11-19T05:35:12;11.60;75.10
81321;DHT22;70785;52.570;5.638;2023-11-19T05:37:38;11.70;75.20
81321;DHT22;70785;52.570;5.638;2023-11-19T05:40:06;11.70;75.20
81321;DHT22;70785;52.570;5.638;2023-11-19T05:42:38;11.70;75.20
81321;DHT22;70785;52.570;5.638;2023-11-19T05:45:04;11.70;75.00
81321;DHT22;70785;52.570;5.638;2023-11-19T05:47:30;11.70;74.80
81321;DHT22;70785;52.570;5.638;2023-11-19T05:49:56;11.70;74.80
81321;DHT22;70785;52.570;5.638;2023-11-19T05:52:22;11.70;74.70
81321;DHT22;70785;52.570;5.638;2023-11-19T05:54:49;11.80;74.50
81321;DHT22;70785;52.570;5.638;2023-11-19T05:57:17;11.80;74.50
81321;DHT22;70785;52.570;5.638;2023-11-19T05:59:49;11.80;74.40
81321;DHT22;70785;52.570;5.638;2023-11-19T06:02:16;11.70;74.40
81321;DHT22;70785;52.570;5.638;2023-11-19T06:04:42;11.70;74.30
81321;DHT22;70785;52.570;5.638;2023-11-19T06:07:10;11.70;74.30
81321;DHT22;70785;52.570;5.638;2023-11-19T06:09:36;11.70;74.20
81321;DHT22;70785;52.570;5.638;2023-11-19T06:12:02;11.70;74.10
81321;DHT22;70785;52.570;5.638;2023-11-19T06:14:29;11.70;74.10
81321;DHT22;70785;52.570;5.638;2023-11-19T06:16:55;11.70;74.10
81321;DHT22;70785;52.570;5.638;2023-11-19T06:19:21;11.60;74.10
81321;DHT22;70785;52.570;5.638;2023-11-19T06:21:47;11.60;73.90
81321;DHT22;70785;52.570;5.638;2023-11-19T06:24:14;11.60;73.80
81321;DHT22;70785;52.570;5.638;2023-11-19T06:26:40;11.60;73.70
81321;DHT22;70785;52.570;5.638;2023-11-19T06:29:06;11.60;73.70
81321;DHT22;70785;52.570;5.638;2023-11-19T06:31:32;11.50;73.50
81321;DHT22;70785;52.570;5.638;2023-11-19T06:33:58;11.50;73.40
81321;DHT22;70785;52.570;5.638;2023-11-19T06:36:24;11.50;73.50
81321;DHT22;70785;52.570;5.638;2023-11-19T06:38:51;11.40;73.60
81321;DHT22;70785;52.570;5.638;2023-11-19T06:41:17;11.40;73.60
81321;DHT22;70785;52.570;5.638;2023-11-19T06:43:43;11.30;73.70
81321;DHT22;70785;52.570;5.638;2023-11-19T06:46:16;11.30;73.70
81321;DHT22;70785;52.570;5.638;2023-11-19T06:48:43;11.20;73.80
81321;DHT22;70785;52.570;5.638;2023-11-19T06:51:10;11.10;73.70
81321;DHT22;70785;52.570;5.638;2023-11-19T06:53:36;11.10;73.70
81321;DHT22;70785;52.570;5.638;2023-11-19T06:56:03;11.10;73.80
81321;DHT22;70785;52.570;5.638;2023-11-19T06:58:35;11.10;73.90
81321;DHT22;70785;52.570;5.638;2023-11-19T07:01:01;11.10;73.90
81321;DHT22;70785;52.570;5.638;2023-11-19T07:03:27;11.10;73.90
81321;DHT22;70785;52.570;5.638;2023-11-19T07:05:54;11.10;73.90
81321;DHT22;70785;52.570;5.638;2023-11-19T07:08:21;11.10;73.90
81321;DHT22;70785;52.570;5.638;2023-11-19T07:10:47;11.10;73.80
81321;DHT22;70785;52.570;5.638;2023-11-19T07:13:13;11.10;73.60
81321;DHT22;70785;52.570;5.638;2023-11-19T07:15:40;11.10;73.70
81321;DHT22;70785;52.570;5.638;2023-11-19T07:18:06;11.10;73.70
81321;DHT22;70785;52.570;5.638;2023-11-19T07:20:32;11.10;73.70
81321;DHT22;70785;52.570;5.638;2023-11-19T07:22:58;11.10;73.70
81321;DHT22;70785;52.570;5.638;2023-11-19T07:25:25;11.20;73.70
81321;DHT22;70785;52.570;5.638;2023-11-19T07:27:51;11.30;73.70
81321;DHT22;70785;52.570;5.638;2023-11-19T07:30:18;11.30;73.70
81321;DHT22;70785;52.570;5.638;2023-11-19T07:32:44;11.40;73.70
81321;DHT22;70785;52.570;5.638;2023-11-19T07:35:10;11.40;73.50
81321;DHT22;70785;52.570;5.638;2023-11-19T07:37:37;11.50;73.30
81321;DHT22;70785;52.570;5.638;2023-11-19T07:40:04;11.50;73.20
81321;DHT22;70785;52.570;5.638;2023-11-19T07:42:30;11.50;73.00
81321;DHT22;70785;52.570;5.638;2023-11-19T07:44:57;11.50;73.00
81321;DHT22;70785;52.570;5.638;2023-11-19T07:47:23;11.60;73.00
81321;DHT22;70785;52.570;5.638;2023-11-19T07:49:50;11.60;72.90
81321;DHT22;70785;52.570;5.638;2023-11-19T07:52:16;11.70;72.90
81321;DHT22;70785;52.570;5.638;2023-11-19T07:54:42;11.70;72.80
81321;DHT22;70785;52.570;5.638;2023-11-19T07:57:08;11.70;72.90
81321;DHT22;70785;52.570;5.638;2023-11-19T07:59:34;11.70;72.70
81321;DHT22;70785;52.570;5.638;2023-11-19T08:02:00;11.70;72.70
81321;DHT22;70785;52.570;5.638;2023-11-19T08:04:27;11.70;72.80
81321;DHT22;70785;52.570;5.638;2023-11-19T08:06:53;11.70;72.80
81321;DHT22;70785;52.570;5.638;2023-11-19T08:09:19;11.70;72.80
81321;DHT22;70785;52.570;5.638;2023-11-19T08:11:45;11.80;72.80
81321;DHT22;70785;52.570;5.638;2023-11-19T08:14:11;11.80;72.90
81321;DHT22;70785;52.570;5.638;2023-11-19T08:16:39;11.80;72.70
81321;DHT22;70785;52.570;5.638;2023-11-19T08:19:05;11.70;72.70
81321;DHT22;70785;52.570;5.638;2023-11-19T08:21:31;11.70;72.70
81321;DHT22;70785;52.570;5.638;2023-11-19T08:23:58;11.70;72.60
81321;DHT22;70785;52.570;5.638;2023-11-19T08:26:24;11.70;72.40
81321;DHT22;70785;52.570;5.638;2023-11-19T08:28:50;11.80;72.20
81321;DHT22;70785;52.570;5.638;2023-11-19T08:31:17;11.90;72.10
81321;DHT22;70785;52.570;5.638;2023-11-19T08:33:44;11.90;72.10
81321;DHT22;70785;52.570;5.638;2023-11-19T08:36:15;11.90;72.10
81321;DHT22;70785;52.570;5.638;2023-11-19T08:38:42;11.90;72.00
81321;DHT22;70785;52.570;5.638;2023-11-19T08:41:08;11.90;71.90
81321;DHT22;70785;52.570;5.638;2023-11-19T08:43:34;12.00;71.70
81321;DHT22;70785;52.570;5.638;2023-11-19T08:46:00;12.00;71.60
81321;DHT22;70785;52.570;5.638;2023-11-19T08:48:26;12.00;71.50
81321;DHT22;70785;52.570;5.638;2023-11-19T08:50:52;12.00;71.20
81321;DHT22;70785;52.570;5.638;2023-11-19T08:53:19;12.10;71.20
81321;DHT22;70785;52.570;5.638;2023-11-19T08:55:45;12.10;71.40
81321;DHT22;70785;52.570;5.638;2023-11-19T08:58:11;12.10;71.20
81321;DHT22;70785;52.570;5.638;2023-11-19T09:00:37;12.10;71.10
81321;DHT22;70785;52.570;5.638;2023-11-19T09:03:03;12.20;71.00
81321;DHT22;70785;52.570;5.638;2023-11-19T09:05:29;12.20;71.10
81321;DHT22;70785;52.570;5.638;2023-11-19T09:07:55;12.30;71.00
81321;DHT22;70785;52.570;5.638;2023-11-19T09:10:21;12.30;70.80
81321;DHT22;70785;52.570;5.638;2023-11-19T09:12:47;12.40;70.70
81321;DHT22;70785;52.570;5.638;2023-11-19T09:15:14;12.50;70.60
81321;DHT22;70785;52.570;5.638;2023-11-19T09:17:40;12.50;70.40
81321;DHT22;70785;52.570;5.638;2023-11-19T09:20:07;12.50;70.40
81321;DHT22;70785;52.570;5.638;2023-11-19T09:22:34;12.50;70.20
81321;DHT22;70785;52.570;5.638;2023-11-19T09:25:00;12.50;70.10
81321;DHT22;70785;52.570;5.638;2023-11-19T09:27:26;12.50;70.20
81321;DHT22;70785;52.570;5.638;2023-11-19T09:29:52;12.60;70.30
81321;DHT22;70785;52.570;5.638;2023-11-19T09:32:23;12.60;70.20
81321;DHT22;70785;52.570;5.638;2023-11-19T09:34:49;12.70;70.10
81321;DHT22;70785;52.570;5.638;2023-11-19T09:37:16;12.70;69.80
81321;DHT22;70785;52.570;5.638;2023-11-19T09:39:42;12.70;69.60
81321;DHT22;70785;52.570;5.638;2023-11-19T09:42:09;12.70;69.70
81321;DHT22;70785;52.570;5.638;2023-11-19T09:44:37;12.80;69.50
81321;DHT22;70785;52.570;5.638;2023-11-19T09:47:05;12.70;69.40
81321;DHT22;70785;52.570;5.638;2023-11-19T09:49:33;12.70;69.60
81321;DHT22;70785;52.570;5.638;2023-11-19T09:52:00;12.70;69.60
81321;DHT22;70785;52.570;5.638;2023-11-19T09:54:27;12.70;69.70
81321;DHT22;70785;52.570;5.638;2023-11-19T09:56:54;12.70;69.80
81321;DHT22;70785;52.570;5.638;2023-11-19T09:59:25;12.70;69.80
81321;DHT22;70785;52.570;5.638;2023-11-19T10:01:52;12.60;69.80
81321;DHT22;70785;52.570;5.638;2023-11-19T10:04:18;12.50;70.00
81321;DHT22;70785;52.570;5.638;2023-11-19T10:06:45;12.50;70.10
81321;DHT22;70785;52.570;5.638;2023-11-19T10:09:12;12.60;70.10
81321;DHT22;70785;52.570;5.638;2023-11-19T10:11:41;12.70;70.10
81321;DHT22;70785;52.570;5.638;2023-11-19T10:14:07;12.80;69.90
81321;DHT22;70785;52.570;5.638;2023-11-19T10:16:34;12.90;69.70
81321;DHT22;70785;52.570;5.638;2023-11-19T10:19:01;12.90;69.70
81321;DHT22;70785;52.570;5.638;2023-11-19T10:21:27;13.00;69.20
81321;DHT22;70785;52.570;5.638;2023-11-19T10:23:55;13.00;69.30
81321;DHT22;70785;52.570;5.638;2023-11-19T10:26:27;13.00;69.40
81321;DHT22;70785;52.570;5.638;2023-11-19T10:28:53;12.90;69.50
81321;DHT22;70785;52.570;5.638;2023-11-19T10:31:20;12.90;69.50
81321;DHT22;70785;52.570;5.638;2023-11-19T10:33:51;12.90;69.40
81321;DHT22;70785;52.570;5.638;2023-11-19T10:36:17;12.90;69.30
81321;DHT22;70785;52.570;5.638;2023-11-19T10:39:01;12.80;69.50
81321;DHT22;70785;52.570;5.638;2023-11-19T10:41:28;12.80;69.60
81321;DHT22;70785;52.570;5.638;2023-11-19T10:43:54;12.80;69.70
81321;DHT22;70785;52.570;5.638;2023-11-19T10:46:20;12.70;70.00
81321;DHT22;70785;52.570;5.638;2023-11-19T10:48:49;12.70;70.00
81321;DHT22;70785;52.570;5.638;2023-11-19T10:51:19;12.70;70.10
81321;DHT22;70785;52.570;5.638;2023-11-19T10:53:49;12.70;70.20
81321;DHT22;70785;52.570;5.638;2023-11-19T10:56:22;12.60;70.40
81321;DHT22;70785;52.570;5.638;2023-11-19T10:58:51;12.50;70.70
81321;DHT22;70785;52.570;5.638;2023-11-19T11:01:20;12.50;70.90
81321;DHT22;70785;52.570;5.638;2023-11-19T11:03:51;12.50;71.10
81321;DHT22;70785;52.570;5.638;2023-11-19T11:06:21;12.40;71.20
81321;DHT22;70785;52.570;5.638;2023-11-19T11:08:48;12.40;71.20
81321;DHT22;70785;52.570;5.638;2023-11-19T11:11:16;12.40;71.10
81321;DHT22;70785;52.570;5.638;2023-11-19T11:13:47;12.30;71.10
81321;DHT22;70785;52.570;5.638;2023-11-19T11:16:18;12.30;71.20
81321;DHT22;70785;52.570;5.638;2023-11-19T11:18:46;12.40;71.20
81321;DHT22;70785;52.570;5.638;2023-11-19T11:21:20;12.50;71.20
81321;DHT22;70785;52.570;5.638;2023-11-19T11:30:14;12.60;70.40
81321;DHT22;70785;52.570;5.638;2023-11-19T11:38:58;12.70;69.60
81321;DHT22;70785;52.570;5.638;2023-11-19T11:41:26;12.70;69.50
81321;DHT22;70785;52.570;5.638;2023-11-19T11:43:53;12.70;69.60
81321;DHT22;70785;52.570;5.638;2023-11-19T11:49:04;12.70;69.50
81321;DHT22;70785;52.570;5.638;2023-11-19T11:54:29;12.80;69.40
81321;DHT22;70785;52.570;5.638;2023-11-19T11:57:13;12.80;69.40
81321;DHT22;70785;52.570;5.638;2023-11-19T11:59:47;12.80;69.30
81321;DHT22;70785;52.570;5.638;2023-11-19T12:02:21;12.90;69.10
81321;DHT22;70785;52.570;5.638;2023-11-19T12:04:49;12.90;69.10
81321;DHT22;70785;52.570;5.638;2023-11-19T12:07:18;12.90;68.90
81321;DHT22;70785;52.570;5.638;2023-11-19T12:09:52;12.90;69.00
81321;DHT22;70785;52.570;5.638;2023-11-19T12:12:26;12.90;69.00
81321;DHT22;70785;52.570;5.638;2023-11-19T12:20:00;13.00;68.20
81321;DHT22;70785;52.570;5.638;2023-11-19T12:22:27;13.00;67.90
81321;DHT22;70785;52.570;5.638;2023-11-19T12:24:54;13.00;68.10
81321;DHT22;70785;52.570;5.638;2023-11-19T12:27:21;13.00;68.00
81321;DHT22;70785;52.570;5.638;2023-11-19T12:29:48;13.00;68.00
81321;DHT22;70785;52.570;5.638;2023-11-19T12:32:15;13.00;67.90
81321;DHT22;70785;52.570;5.638;2023-11-19T12:34:41;13.00;67.70
81321;DHT22;70785;52.570;5.638;2023-11-19T12:37:08;12.90;67.80
81321;DHT22;70785;52.570;5.638;2023-11-19T12:39:36;12.90;67.90
81321;DHT22;70785;52.570;5.638;2023-11-19T12:42:03;12.80;68.10
81321;DHT22;70785;52.570;5.638;2023-11-19T12:44:29;12.80;68.40
81321;DHT22;70785;52.570;5.638;2023-11-19T12:47:06;12.70;68.60
81321;DHT22;70785;52.570;5.638;2023-11-19T12:49:33;12.70;68.80
81321;DHT22;70785;52.570;5.638;2023-11-19T12:52:00;12.70;68.80
81321;DHT22;70785;52.570;5.638;2023-11-19T12:54:36;12.70;68.90
81321;DHT22;70785;52.570;5.638;2023-11-19T12:57:03;12.70;68.90
81321;DHT22;70785;52.570;5.638;2023-11-19T12:59:31;12.70;68.90
81321;DHT22;70785;52.570;5.638;2023-11-19T13:01:58;12.70;68.90
81321;DHT22;70785;52.570;5.638;2023-11-19T13:04:28;12.70;69.00
81321;DHT22;70785;52.570;5.638;2023-11-19T13:06:58;12.70;68.90
81321;DHT22;70785;52.570;5.638;2023-11-19T13:09:27;12.70;68.80
81321;DHT22;70785;52.570;5.638;2023-11-19T13:11:55;12.70;68.80
81321;DHT22;70785;52.570;5.638;2023-11-19T13:14:22;12.70;68.70
81321;DHT22;70785;52.570;5.638;2023-11-19T13:16:49;12.70;68.50
81321;DHT22;70785;52.570;5.638;2023-11-19T13:19:15;12.70;68.40
81321;DHT22;70785;52.570;5.638;2023-11-19T13:21:45;12.70;68.50
81321;DHT22;70785;52.570;5.638;2023-11-19T13:24:14;12.70;68.70
81321;DHT22;70785;52.570;5.638;2023-11-19T13:26:40;12.50;69.00
81321;DHT22;70785;52.570;5.638;2023-11-19T13:29:06;12.50;69.70
81321;DHT22;70785;52.570;5.638;2023-11-19T13:31:32;12.40;70.10
81321;DHT22;70785;52.570;5.638;2023-11-19T13:33:59;12.30;70.30
81321;DHT22;70785;52.570;5.638;2023-11-19T13:36:25;12.20;70.40
81321;DHT22;70785;52.570;5.638;2023-11-19T13:38:52;12.20;70.60
81321;DHT22;70785;52.570;5.638;2023-11-19T13:41:25;12.20;70.80
81321;DHT22;70785;52.570;5.638;2023-11-19T13:43:52;12.00;71.40
81321;DHT22;70785;52.570;5.638;2023-11-19T13:46:18;11.90;72.10
81321;DHT22;70785;52.570;5.638;2023-11-19T13:48:44;11.70;72.50
81321;DHT22;70785;52.570;5.638;2023-11-19T13:51:10;11.70;73.00
81321;DHT22;70785;52.570;5.638;2023-11-19T13:53:36;11.50;73.40
81321;DHT22;70785;52.570;5.638;2023-11-19T13:56:03;11.50;73.80
81321;DHT22;70785;52.570;5.638;2023-11-19T13:58:29;11.50;74.10
81321;DHT22;70785;52.570;5.638;2023-11-19T14:00:56;11.40;74.20
81321;DHT22;70785;52.570;5.638;2023-11-19T14:03:22;11.40;74.20
81321;DHT22;70785;52.570;5.638;2023-11-19T14:05:48;11.40;74.20
81321;DHT22;70785;52.570;5.638;2023-11-19T14:08:18;11.50;74.30
81321;DHT22;70785;52.570;5.638;2023-11-19T14:10:44;11.50;74.30
81321;DHT22;70785;52.570;5.638;2023-11-19T14:13:10;11.50;74.40
81321;DHT22;70785;52.570;5.638;2023-11-19T14:15:37;11.50;74.30
81321;DHT22;70785;52.570;5.638;2023-11-19T14:18:03;11.50;74.40
81321;DHT22;70785;52.570;5.638;2023-11-19T14:20:29;11.60;74.30
81321;DHT22;70785;52.570;5.638;2023-11-19T14:22:55;11.70;74.10
81321;DHT22;70785;52.570;5.638;2023-11-19T14:25:21;11.70;74.00
81321;DHT22;70785;52.570;5.638;2023-11-19T14:27:49;11.70;73.80
81321;DHT22;70785;52.570;5.638;2023-11-19T14:30:16;11.70;73.60
81321;DHT22;70785;52.570;5.638;2023-11-19T14:32:42;11.80;73.40
81321;DHT22;70785;52.570;5.638;2023-11-19T14:35:11;11.90;73.30
81321;DHT22;70785;52.570;5.638;2023-11-19T14:37:38;11.90;73.20
81321;DHT22;70785;52.570;5.638;2023-11-19T14:40:04;11.90;72.90
81321;DHT22;70785;52.570;5.638;2023-11-19T14:42:31;11.90;72.80
81321;DHT22;70785;52.570;5.638;2023-11-19T14:44:58;11.90;72.80
81321;DHT22;70785;52.570;5.638;2023-11-19T14:47:25;11.90;72.80
81321;DHT22;70785;52.570;5.638;2023-11-19T14:49:51;11.90;72.80
81321;DHT22;70785;52.570;5.638;2023-11-19T14:52:17;11.90;72.80
81321;DHT22;70785;52.570;5.638;2023-11-19T14:54:43;11.90;72.90
81321;DHT22;70785;52.570;5.638;2023-11-19T14:57:09;11.90;72.90
81321;DHT22;70785;52.570;5.638;2023-11-19T14:59:36;11.90;72.70
81321;DHT22;70785;52.570;5.638;2023-11-19T15:02:06;11.90;72.70
81321;DHT22;70785;52.570;5.638;2023-11-19T15:04:32;11.90;72.60
81321;DHT22;70785;52.570;5.638;2023-11-19T15:06:59;11.90;72.60
81321;DHT22;70785;52.570;5.638;2023-11-19T15:09:26;11.90;72.60
81321;DHT22;70785;52.570;5.638;2023-11-19T15:11:55;11.90;72.50
81321;DHT22;70785;52.570;5.638;2023-11-19T15:14:23;11.90;72.50
81321;DHT22;70785;52.570;5.638;2023-11-19T15:16:49;11.90;72.50
81321;DHT22;70785;52.570;5.638;2023-11-19T15:19:17;11.90;72.40
81321;DHT22;70785;52.570;5.638;2023-11-19T15:21:44;11.90;72.40
81321;DHT22;70785;52.570;5.638;2023-11-19T15:24:10;11.90;72.20
81321;DHT22;70785;52.570;5.638;2023-11-19T15:26:38;11.90;72.30
81321;DHT22;70785;52.570;5.638;2023-11-19T15:29:04;11.80;72.60
81321;DHT22;70785;52.570;5.638;2023-11-19T15:31:31;11.70;73.00
81321;DHT22;70785;52.570;5.638;2023-11-19T15:33:57;11.50;73.50
81321;DHT22;70785;52.570;5.638;2023-11-19T15:36:24;11.50;73.90
81321;DHT22;70785;52.570;5.638;2023-11-19T15:38:50;11.40;74.30
81321;DHT22;70785;52.570;5.638;2023-11-19T15:41:16;11.30;74.60
81321;DHT22;70785;52.570;5.638;2023-11-19T15:43:42;11.20;74.70
81321;DHT22;70785;52.570;5.638;2023-11-19T15:46:09;11.10;75.00
81321;DHT22;70785;52.570;5.638;2023-11-19T15:48:37;11.10;75.20
81321;DHT22;70785;52.570;5.638;2023-11-19T15:51:03;11.10;75.30
81321;DHT22;70785;52.570;5.638;2023-11-19T15:53:29;11.10;75.40
81321;DHT22;70785;52.570;5.638;2023-11-19T15:55:59;11.10;75.40